Time;durP1;ratioP1;P1;durP2;ratioP2;P2;SDS_P1;SDS_P2;PMS_P1;PMS_P2;Temp;Humidity;BMP_temperature;BMP_pressure;BME280_temperature;BME280_humidity;BME280_pressure;Samples;Min_cycle;Max_cycle;Signal;HPM_P1;HPM_P2
2022/02/20 00:02:19;;;;;;;18.85;9.60;;;;;;;3.73;100.00;100675.34;1630260;86;21074;-87
2022/02/20 00:04:46;;;;;;;18.23;9.43;;;;;;;3.74;100.00;100690.36;1632282;86;21079;-87
2022/02/20 00:07:13;;;;;;;21.27;10.25;;;;;;;3.70;100.00;100691.39;1621606;86;21087;-87
2022/02/20 00:09:43;;;;;;;17.92;10.13;;;;;;;3.70;100.00;100683.67;1631976;86;21749;-87
2022/02/20 00:12:10;;;;;;;19.32;9.73;;;;;;;3.72;100.00;100684.01;1630600;86;21530;-87
2022/02/20 00:14:38;;;;;;;16.20;9.25;;;;;;;3.72;100.00;100686.58;1631716;86;22097;-87
2022/02/20 00:17:06;;;;;;;17.95;9.10;;;;;;;3.72;100.00;100685.30;1631978;86;21185;-87
2022/02/20 00:19:33;;;;;;;17.85;9.40;;;;;;;3.72;100.00;100684.01;1631822;86;21647;-91
2022/02/20 00:22:01;;;;;;;14.95;8.88;;;;;;;3.71;100.00;100686.20;1619524;87;21143;-90
2022/02/20 00:24:28;;;;;;;15.98;8.48;;;;;;;3.69;100.00;100685.85;1630578;86;21158;-92
2022/02/20 00:26:54;;;;;;;17.77;8.50;;;;;;;3.66;100.00;100683.44;1631994;86;21659;-92
2022/02/20 00:29:21;;;;;;;17.37;9.85;;;;;;;3.62;100.00;100682.74;1630427;86;21115;-91
2022/02/20 00:31:48;;;;;;;18.77;9.10;;;;;;;3.61;100.00;100674.63;1631003;86;21167;-90
2022/02/20 00:34:15;;;;;;;16.02;8.68;;;;;;;3.59;100.00;100672.13;1634996;85;21082;-90
2022/02/20 00:36:43;;;;;;;18.15;9.90;;;;;;;3.59;100.00;100664.84;1633982;85;21623;-88
2022/02/20 00:39:11;;;;;;;19.50;10.55;;;;;;;3.60;100.00;100663.94;1620776;86;21159;-87
2022/02/20 00:41:38;;;;;;;17.75;9.73;;;;;;;3.60;100.00;100665.23;1612902;86;21096;-87
2022/02/20 00:44:05;;;;;;;19.98;10.48;;;;;;;3.58;100.00;100665.73;1637094;85;21030;-87
2022/02/20 00:46:33;;;;;;;16.07;9.75;;;;;;;3.57;100.00;100670.50;1633583;85;21086;-87
2022/02/20 00:49:00;;;;;;;18.10;9.45;;;;;;;3.56;100.00;100670.14;1623203;85;21139;-87
2022/02/20 00:51:27;;;;;;;19.27;10.38;;;;;;;3.56;100.00;100672.26;1638257;85;21560;-88
2022/02/20 00:53:54;;;;;;;19.10;10.82;;;;;;;3.55;100.00;100672.34;1635647;85;21111;-88
2022/02/20 00:56:21;;;;;;;22.00;11.97;;;;;;;3.55;100.00;100668.47;1615721;85;21055;-88
2022/02/20 00:58:49;;;;;;;16.10;10.95;;;;;;;3.55;100.00;100669.76;1637409;85;21134;-87
2022/02/20 01:01:18;;;;;;;26.27;13.08;;;;;;;3.53;100.00;100674.95;1634022;86;21860;-87
2022/02/20 01:03:45;;;;;;;19.32;12.23;;;;;;;3.53;100.00;100668.52;1637086;85;21130;-87
2022/02/20 01:06:12;;;;;;;20.08;12.82;;;;;;;3.53;100.00;100667.70;1634968;85;21221;-86
2022/02/20 01:08:39;;;;;;;36.60;18.73;;;;;;;3.52;100.00;100673.75;1634568;85;21604;-88
2022/02/20 01:11:06;;;;;;;35.25;19.45;;;;;;;3.52;100.00;100673.75;1635209;85;21111;-87
2022/02/20 01:13:35;;;;;;;41.85;19.62;;;;;;;3.51;100.00;100668.21;1636369;85;21142;-86
2022/02/20 01:16:03;;;;;;;30.00;17.00;;;;;;;3.50;100.00;100669.11;1636024;85;21173;-87
2022/02/20 01:18:32;;;;;;;24.30;15.75;;;;;;;3.48;100.00;100670.01;1637573;85;21241;-90
2022/02/20 01:20:59;;;;;;;32.03;15.43;;;;;;;3.51;100.00;100665.20;1634276;85;21146;-90
2022/02/20 01:23:27;;;;;;;28.57;15.90;;;;;;;3.50;100.00;100663.53;1615987;86;21070;-88
2022/02/20 01:25:54;;;;;;;24.87;16.15;;;;;;;3.52;100.00;100671.17;1635805;85;21874;-87
2022/02/20 01:28:21;;;;;;;26.17;14.93;;;;;;;3.51;100.00;100671.64;1638220;84;21095;-88
2022/02/20 01:30:49;;;;;;;32.63;16.62;;;;;;;3.51;100.00;100674.65;1634279;86;21889;-88
2022/02/20 01:33:17;;;;;;;22.93;15.25;;;;;;;3.49;100.00;100674.73;1633253;86;21229;-88
2022/02/20 01:35:46;;;;;;;24.02;14.50;;;;;;;3.50;100.00;100674.26;1613542;85;21587;-87
2022/02/20 01:38:15;;;;;;;29.20;16.23;;;;;;;3.52;100.00;100673.75;1629080;86;21608;-88
2022/02/20 01:40:46;;;;;;;;;;;;;;;3.52;100.00;100678.90;1612749;86;21102;-89
2022/02/20 01:43:13;;;;;;;25.62;15.43;;;;;;;3.51;100.00;100683.66;1632058;86;21176;-88
2022/02/20 01:45:42;;;;;;;25.75;15.60;;;;;;;3.47;100.00;100683.81;1627868;86;21213;-86
2022/02/20 01:48:11;;;;;;;25.97;16.05;;;;;;;3.47;100.00;100686.83;1625240;86;21118;-87
2022/02/20 01:50:40;;;;;;;26.82;15.03;;;;;;;3.45;100.00;100686.91;1635493;86;21011;-87
2022/02/20 01:53:07;;;;;;;23.47;14.85;;;;;;;3.46;100.00;100692.44;1626780;86;21080;-87
2022/02/20 01:55:35;;;;;;;26.90;15.53;;;;;;;3.44;100.00;100684.41;1602988;87;21172;-87
2022/02/20 01:58:09;;;;;;;24.50;15.60;;;;;;;3.44;100.00;100692.95;1612175;86;21565;-86
2022/02/20 02:00:41;;;;;;;23.38;15.53;;;;;;;3.42;100.00;100691.35;1618901;86;21165;-87
2022/02/20 02:03:13;;;;;;;30.90;17.40;;;;;;;3.37;100.00;100681.69;1586123;87;21638;-86
2022/02/20 02:05:48;;;;;;;26.77;15.85;;;;;;;3.34;100.00;100682.66;1618526;87;21084;-87
2022/02/20 02:08:16;;;;;;;32.33;17.65;;;;;;;3.32;100.00;100693.50;1617340;87;21165;-87
2022/02/20 02:11:05;;;;;;;24.82;15.88;;;;;;;3.29;100.00;100685.90;1578696;89;21645;-89
2022/02/20 02:13:44;;;;;;;27.55;17.10;;;;;;;3.25;100.00;100692.92;1578953;89;21177;-88
2022/02/20 02:16:24;;;;;;;27.20;16.85;;;;;;;3.22;100.00;100707.66;1610540;86;22261;-87
2022/02/20 02:18:55;;;;;;;27.15;16.32;;;;;;;3.20;100.00;100708.17;1610154;86;21078;-89
2022/02/20 02:21:36;;;;;;;25.70;15.90;;;;;;;3.16;100.00;100706.17;1635564;86;21177;-87
2022/02/20 02:24:15;;;;;;;29.70;16.17;;;;;;;3.10;100.00;100714.98;1635252;86;21106;-89
2022/02/20 02:26:46;;;;;;;23.30;15.38;;;;;;;3.03;100.00;100721.30;1609175;86;21157;-88
2022/02/20 02:29:14;;;;;;;24.90;14.95;;;;;;;3.01;100.00;100723.09;1637457;86;21111;-90
2022/02/20 02:31:43;;;;;;;25.75;16.07;;;;;;;2.97;100.00;100723.67;1640625;85;21195;-89
2022/02/20 02:34:10;;;;;;;26.07;16.73;;;;;;;2.92;100.00;100715.78;1644383;85;21384;-87
2022/02/20 02:36:39;;;;;;;33.55;16.87;;;;;;;2.87;100.00;100721.11;1644365;85;21060;-87
2022/02/20 02:39:07;;;;;;;30.43;17.70;;;;;;;2.86;100.00;100727.58;1644502;85;21108;-86
2022/02/20 02:41:55;;;;;;;28.17;17.17;;;;;;;2.81;100.00;100736.77;1594655;87;21092;-88
2022/02/20 02:44:08;;;;;;;30.20;17.37;;;;;;;2.78;100.00;100740.31;1635696;86;21809;-88
2022/02/20 02:46:37;;;;;;;33.05;18.05;;;;;;;2.77;100.00;100737.81;1648725;84;21144;-88
2022/02/20 02:49:09;;;;;;;27.20;16.97;;;;;;;2.75;100.00;100739.59;1635035;85;21057;-88
2022/02/20 02:51:37;;;;;;;;;;;;;;;2.74;100.00;100740.06;1636272;86;21598;-90
2022/02/20 02:54:10;;;;;;;28.90;17.10;;;;;;;2.70;100.00;100737.21;1635894;85;20189;-90
2022/02/20 02:56:39;;;;;;;27.10;16.82;;;;;;;2.63;100.00;100743.50;1642416;85;21105;-87
2022/02/20 02:59:07;;;;;;;33.58;18.92;;;;;;;2.63;100.00;100743.50;1650754;85;22044;-88
2022/02/20 03:01:36;;;;;;;27.70;18.50;;;;;;;2.61;100.00;100747.86;1639399;86;21097;-90
2022/02/20 03:04:04;;;;;;;29.85;18.40;;;;;;;2.59;100.00;100740.22;1645713;85;21043;-91
2022/02/20 03:06:31;;;;;;;26.45;16.90;;;;;;;2.58;100.00;100745.42;1641592;86;21068;-91
2022/02/20 03:09:06;;;;;;;34.73;18.45;;;;;;;2.57;100.00;100752.28;1647447;85;21025;-89
2022/02/20 03:11:34;;;;;;;29.67;17.30;;;;;;;2.54;100.00;100743.42;1636059;85;21199;-87
2022/02/20 03:14:03;;;;;;;26.00;17.12;;;;;;;2.52;100.00;100752.47;1623081;86;21788;-89
2022/02/20 03:16:31;;;;;;;29.15;16.82;;;;;;;2.49;100.00;100752.60;1624101;86;21084;-87
2022/02/20 03:19:00;;;;;;;20.88;15.18;;;;;;;2.47;100.00;100763.39;1643121;85;21336;-87
2022/02/20 03:21:28;;;;;;;25.05;15.60;;;;;;;2.42;100.00;100763.17;1635106;85;21578;-86
2022/02/20 03:23:55;;;;;;;26.80;16.60;;;;;;;2.42;100.00;100763.17;1634972;86;21206;-86
2022/02/20 03:26:24;;;;;;;28.32;17.55;;;;;;;2.38;100.00;100761.63;1633392;86;21581;-87
2022/02/20 03:28:53;;;;;;;28.65;16.87;;;;;;;2.38;100.00;100761.63;1624934;86;21073;-86
2022/02/20 03:31:21;;;;;;;27.00;16.65;;;;;;;2.41;100.00;100764.91;1638466;85;21120;-91
2022/02/20 03:33:49;;;;;;;34.08;19.67;;;;;;;2.41;100.00;100771.34;1631588;86;21065;-92
2022/02/20 03:36:16;;;;;;;27.22;17.85;;;;;;;2.40;100.00;100771.41;1631761;86;21165;-88
2022/02/20 03:38:43;;;;;;;27.93;17.70;;;;;;;2.39;100.00;100778.27;1639968;85;21084;-87
2022/02/20 03:41:12;;;;;;;31.40;18.80;;;;;;;2.36;100.00;100779.23;1650678;85;21026;-87
2022/02/20 03:43:40;;;;;;;29.90;19.85;;;;;;;2.33;100.00;100781.90;1644577;85;21122;-86
2022/02/20 03:46:08;;;;;;;34.20;20.45;;;;;;;2.30;100.00;100774.76;1642211;85;21073;-87
2022/02/20 03:48:37;;;;;;;34.90;22.25;;;;;;;2.28;100.00;100769.69;1628107;86;21179;-87
2022/02/20 03:51:06;;;;;;;30.43;19.95;;;;;;;2.21;100.00;100772.92;1638758;85;22349;-89
2022/02/20 03:53:33;;;;;;;36.00;21.90;;;;;;;2.21;100.00;100772.92;1596210;87;21806;-89
2022/02/20 03:56:02;;;;;;;40.55;22.27;;;;;;;2.21;100.00;100772.92;1624141;86;21111;-91
2022/02/20 03:58:31;;;;;;;35.78;20.43;;;;;;;2.17;100.00;100775.23;1622267;86;21047;-86
2022/02/20 04:00:58;;;;;;;40.48;21.97;;;;;;;2.13;100.00;100774.94;1684716;83;21801;-89
2022/02/20 04:03:34;;;;;;;41.10;21.55;;;;;;;2.11;100.00;100782.33;1684677;83;21149;-88
2022/02/20 04:06:03;;;;;;;35.85;21.30;;;;;;;2.07;100.00;100788.48;1686842;83;21692;-87
2022/02/20 04:08:30;;;;;;;35.15;20.02;;;;;;;2.02;100.00;100786.08;1670442;83;21194;-86
2022/02/20 04:11:00;;;;;;;39.15;23.90;;;;;;;1.99;100.00;100787.47;1659554;84;21111;-88
2022/02/20 04:13:35;;;;;;;38.38;22.40;;;;;;;1.99;100.00;100787.47;1647530;84;21416;-87
2022/02/20 04:16:02;;;;;;;42.75;24.15;;;;;;;1.99;100.00;100782.33;1652001;84;21540;-87
2022/02/20 04:18:33;;;;;;;42.67;22.87;;;;;;;1.98;100.00;100789.64;1651729;85;21035;-87
2022/02/20 04:21:04;;;;;;;39.05;22.48;;;;;;;1.95;100.00;100785.91;1652401;85;21102;-87
2022/02/20 04:23:32;;;;;;;31.60;20.52;;;;;;;1.95;100.00;100786.74;1681942;83;21217;-87
2022/02/20 04:26:01;;;;;;;32.67;19.35;;;;;;;1.94;100.00;100785.52;1661833;85;21202;-89
2022/02/20 04:28:32;;;;;;;101.35;23.75;;;;;;;2.04;100.00;100785.59;1642989;85;21127;-84
2022/02/20 04:31:00;;;;;;;72.50;21.90;;;;;;;2.04;100.00;100785.59;1633806;86;21087;-85
2022/02/20 04:33:27;;;;;;;65.30;21.17;;;;;;;2.36;100.00;100788.22;1616967;86;21136;-86
2022/02/20 04:36:00;;;;;;;43.42;20.62;;;;;;;2.68;100.00;100800.74;1611609;85;21132;-90
2022/02/20 04:38:27;;;;;;;42.88;19.05;;;;;;;2.81;100.00;100798.06;1616855;86;21542;-87
2022/02/20 04:41:00;;;;;;;34.48;18.17;;;;;;;2.92;100.00;100802.78;1622904;86;21110;-85
2022/02/20 04:43:36;;;;;;;40.40;18.75;;;;;;;2.97;100.00;100805.17;1670912;83;21063;-87
2022/02/20 04:46:09;;;;;;;35.70;17.02;;;;;;;3.02;100.00;100813.99;1656148;83;21621;-86
2022/02/20 04:48:36;;;;;;;40.03;17.82;;;;;;;3.05;100.00;100817.27;1630419;86;21167;-87
2022/02/20 04:51:07;;;;;;;27.87;16.82;;;;;;;3.06;100.00;100818.95;1614761;86;21198;-86
2022/02/20 04:53:34;;;;;;;26.93;16.30;;;;;;;3.04;100.00;100824.60;1623145;85;21035;-86
2022/02/20 04:56:01;;;;;;;35.28;16.87;;;;;;;2.93;100.00;100835.33;1605971;86;21610;-86
2022/02/20 04:58:33;;;;;;;43.38;17.77;;;;;;;2.89;100.00;100844.05;1634299;84;21086;-83
2022/02/20 05:01:02;;;;;;;35.20;18.98;;;;;;;2.83;100.00;100844.30;1625880;86;21109;-83
2022/02/20 05:03:36;;;;;;;61.25;20.37;;;;;;;2.87;100.00;100851.44;1624595;85;21112;-89
2022/02/20 05:06:05;;;;;;;36.68;20.15;;;;;;;2.92;100.00;100854.69;1639065;87;21064;-88
2022/02/20 05:08:46;;;;;;;68.47;21.73;;;;;;;3.03;100.00;100853.80;1645474;84;21577;-88
2022/02/20 05:11:15;;;;;;;38.25;21.52;;;;;;;2.98;100.00;100862.16;1612073;87;21550;-86
2022/02/20 05:13:43;;;;;;;45.52;21.10;;;;;;;3.06;100.00;100857.55;1643015;87;21254;-86
2022/02/20 05:16:10;;;;;;;37.48;19.80;;;;;;;3.14;100.00;100857.23;1643230;87;21825;-84
2022/02/20 05:18:39;;;;;;;33.13;19.10;;;;;;;3.05;100.00;100845.58;1643723;85;21145;-93
2022/02/20 05:21:53;;;;;;;34.00;18.75;;;;;;;3.12;100.00;100851.33;1655943;84;21129;-93
2022/02/20 05:24:21;;;;;;;31.65;19.07;;;;;;;3.01;100.00;100864.59;1612239;87;21068;-90
2022/02/20 05:26:50;;;;;;;32.45;17.80;;;;;;;2.53;100.00;100851.84;1615666;87;21072;-91
2022/02/20 05:29:17;;;;;;;34.27;18.20;;;;;;;2.53;100.00;100851.84;1636796;85;21229;-90
2022/02/20 05:31:45;;;;;;;36.17;17.90;;;;;;;2.46;100.00;100852.97;1650302;84;21581;-91
2022/02/20 05:34:14;;;;;;;26.07;16.97;;;;;;;2.35;100.00;100849.52;1630792;86;21150;-90
2022/02/20 05:36:43;;;;;;;29.45;18.87;;;;;;;2.33;100.00;100862.03;1628775;86;21693;-91
2022/02/20 05:39:19;;;;;;;31.25;19.52;;;;;;;2.33;100.00;100862.03;1614471;88;21087;-92
2022/02/20 05:41:50;;;;;;;34.83;19.10;;;;;;;2.31;100.00;100866.39;1611890;86;21887;-90
2022/02/20 05:44:17;;;;;;;33.70;19.02;;;;;;;2.25;100.00;100875.61;1622937;86;21117;-89
2022/02/20 05:46:47;;;;;;;35.15;20.88;;;;;;;2.24;100.00;100877.78;1659273;85;21106;-91
2022/02/20 05:49:15;;;;;;;34.43;19.55;;;;;;;2.23;100.00;100876.10;1648952;84;21411;-92
2022/02/20 05:51:57;;;;;;;34.67;19.25;;;;;;;2.23;100.00;100876.10;1649409;86;21077;-90
2022/02/20 05:54:28;;;;;;;33.53;19.05;;;;;;;2.22;100.00;100884.27;1650124;86;21309;-90
2022/02/20 05:56:55;;;;;;;30.77;18.10;;;;;;;2.24;100.00;100880.35;1652632;86;21066;-89
2022/02/20 05:59:22;;;;;;;31.55;17.67;;;;;;;2.33;100.00;100891.13;1634685;85;21110;-90
2022/02/20 06:01:52;;;;;;;29.30;18.32;;;;;;;2.33;100.00;100891.13;1661550;84;21595;-91
2022/02/20 06:04:20;;;;;;;30.37;17.05;;;;;;;2.36;100.00;100889.74;1657328;84;21594;-86
2022/02/20 06:06:53;;;;;;;34.00;17.98;;;;;;;2.40;100.00;100886.61;1651641;85;21145;-85
2022/02/20 06:09:39;;;;;;;32.28;17.77;;;;;;;2.44;100.00;100879.62;1649687;85;21499;-85
2022/02/20 06:12:17;;;;;;;31.85;16.80;;;;;;;2.51;100.00;100875.93;1606464;88;21114;-85
2022/02/20 06:14:52;;;;;;;31.15;15.83;;;;;;;2.55;100.00;100879.23;1632892;85;21093;-85
2022/02/20 06:17:25;;;;;;;32.95;16.67;;;;;;;2.57;100.00;100877.44;1648882;84;21118;-86
2022/02/20 06:19:56;;;;;;;31.00;15.38;;;;;;;2.63;100.00;100877.20;1649825;85;21183;-84
2022/02/20 06:22:25;;;;;;;28.38;15.60;;;;;;;2.70;100.00;100881.67;1642228;85;21135;-93
2022/02/20 06:25:14;;;;;;;24.12;14.28;;;;;;;2.77;100.00;100883.12;1644559;87;21542;-94
2022/02/20 06:27:47;;;;;;;27.70;15.43;;;;;;;2.83;100.00;100885.45;1616052;85;21080;-90
2022/02/20 06:30:16;;;;;;;24.70;14.70;;;;;;;2.88;100.00;100886.56;1617164;87;21064;-91
2022/02/20 06:32:43;;;;;;;26.48;15.32;;;;;;;2.91;100.00;100872.30;1644353;86;21148;-89
2022/02/20 06:35:11;;;;;;;25.65;15.53;;;;;;;2.93;100.00;100876.92;1644367;86;21078;-90
2022/02/20 06:37:42;;;;;;;27.42;14.25;;;;;;;2.97;100.00;100873.34;1643895;85;21114;-91
2022/02/20 06:40:10;;;;;;;29.35;13.48;;;;;;;3.04;100.00;100879.92;1617464;85;21108;-92
2022/02/20 06:42:38;;;;;;;25.37;15.00;;;;;;;3.09;100.00;100880.56;1643193;85;21590;-94
2022/02/20 06:45:07;;;;;;;25.15;11.80;;;;;;;3.21;100.00;100885.67;1642590;86;21612;-91
2022/02/20 06:47:46;;;;;;;25.48;12.93;;;;;;;3.21;100.00;100885.67;1639292;84;21135;-93
2022/02/20 06:50:25;;;;;;;22.35;14.15;;;;;;;3.35;100.00;100882.55;1637928;85;21067;-93
2022/02/20 06:52:57;;;;;;;22.10;12.43;;;;;;;3.41;100.00;100873.28;1587803;85;21103;-90
2022/02/20 06:55:43;;;;;;;24.67;12.25;;;;;;;3.41;100.00;100873.28;1647596;84;21349;-90
2022/02/20 06:58:12;;;;;;;20.55;12.10;;;;;;;3.48;100.00;100882.42;1640628;85;21820;-91
2022/02/20 07:00:39;;;;;;;22.75;13.22;;;;;;;3.54;100.00;100883.09;1612997;86;21098;-92
2022/02/20 07:03:07;;;;;;;19.98;11.35;;;;;;;3.58;100.00;100877.75;1659420;84;21434;-91
2022/02/20 07:05:34;;;;;;;20.70;10.23;;;;;;;3.64;100.00;100874.09;1660547;84;21244;-91
2022/02/20 07:08:01;;;;;;;18.98;11.08;;;;;;;3.70;100.00;100871.25;1649679;84;21074;-91
2022/02/20 07:10:29;;;;;;;16.60;9.18;;;;;;;3.78;100.00;100865.77;1660985;84;21106;-90
2022/02/20 07:12:57;;;;;;;16.62;8.85;;;;;;;3.86;100.00;100868.02;1580886;87;21627;-88
2022/02/20 07:15:25;;;;;;;17.50;8.65;;;;;;;3.93;100.00;100862.98;1652221;84;21078;-90
2022/02/20 07:17:54;;;;;;;12.70;7.55;;;;;;;4.01;100.00;100875.52;1632136;85;21150;-92
2022/02/20 07:20:21;;;;;;;11.55;5.92;;;;;;;4.10;100.00;100881.13;1628411;85;21145;-92
2022/02/20 07:22:50;;;;;;;13.43;5.20;;;;;;;4.16;100.00;100879.18;1629881;86;21128;-89
2022/02/20 07:25:20;;;;;;;10.78;5.97;;;;;;;4.21;100.00;100878.52;1651876;85;21038;-89
2022/02/20 07:27:53;;;;;;;8.75;4.60;;;;;;;4.28;100.00;100881.67;1606954;87;21090;-89
2022/02/20 07:30:17;;;;;;;6.97;4.70;;;;;;;4.35;100.00;100883.06;1630520;86;21326;-90
2022/02/20 07:32:44;;;;;;;6.78;3.85;;;;;;;4.41;100.00;100884.92;1631543;86;21069;-88
2022/02/20 07:35:12;;;;;;;9.20;4.25;;;;;;;4.50;100.00;100886.70;1632913;87;21241;-89
2022/02/20 07:37:39;;;;;;;5.83;3.20;;;;;;;4.60;100.00;100887.97;1612163;86;21644;-88
2022/02/20 07:40:08;;;;;;;6.58;3.80;;;;;;;4.65;100.00;100896.33;1592168;87;21116;-88
2022/02/20 07:42:40;;;;;;;4.67;3.35;;;;;;;4.71;100.00;100898.61;1624067;86;21033;-88
2022/02/20 07:45:08;;;;;;;5.20;3.27;;;;;;;4.76;100.00;100898.88;1636197;86;21120;-91
2022/02/20 07:47:57;;;;;;;6.25;3.42;;;;;;;4.77;100.00;100901.37;1630987;86;21841;-89
2022/02/20 07:50:30;;;;;;;6.70;3.45;;;;;;;4.78;100.00;100900.47;1634575;86;21168;-90
2022/02/20 07:52:58;;;;;;;6.42;3.02;;;;;;;4.86;100.00;100909.13;1587388;87;21076;-88
2022/02/20 07:55:27;;;;;;;8.13;3.77;;;;;;;4.92;100.00;100903.70;1626152;86;21097;-87
2022/02/20 07:57:55;;;;;;;6.37;3.52;;;;;;;4.99;100.00;100915.84;1629124;86;21566;-91
2022/02/20 08:00:31;;;;;;;4.67;2.70;;;;;;;4.97;100.00;100904.31;1597917;87;21594;-88
2022/02/20 08:02:58;;;;;;;5.87;3.42;;;;;;;4.98;100.00;100910.30;1650849;84;21062;-89
2022/02/20 08:05:25;;;;;;;9.73;3.75;;;;;;;4.97;100.00;100907.33;1629581;85;21244;-92
2022/02/20 08:07:53;;;;;;;7.95;4.08;;;;;;;5.03;100.00;100913.52;1637348;86;21099;-90
2022/02/20 08:10:21;;;;;;;7.95;3.87;;;;;;;5.12;100.00;100909.66;1642539;84;21340;-91
2022/02/20 08:12:50;;;;;;;7.75;3.50;;;;;;;5.20;100.00;100907.55;1626969;86;21023;-88
2022/02/20 08:15:18;;;;;;;8.85;3.60;;;;;;;5.28;100.00;100910.59;1655478;85;21085;-88
2022/02/20 08:17:48;;;;;;;5.10;3.20;;;;;;;5.36;100.00;100916.23;1652767;84;21411;-90
2022/02/20 08:20:17;;;;;;;7.72;3.77;;;;;;;5.44;100.00;100917.59;1631844;86;21073;-88
2022/02/20 08:22:45;;;;;;;5.45;3.27;;;;;;;5.47;100.00;100908.42;1652470;85;21108;-91
2022/02/20 08:25:13;;;;;;;6.10;3.30;;;;;;;5.50;100.00;100906.95;1652959;85;21123;-89
2022/02/20 08:27:41;;;;;;;6.35;3.15;;;;;;;5.55;100.00;100908.03;1616794;86;21554;-89
2022/02/20 08:30:11;;;;;;;7.47;3.40;;;;;;;5.62;100.00;100905.52;1618124;86;21080;-88
2022/02/20 08:32:40;;;;;;;5.65;2.87;;;;;;;5.66;100.00;100907.87;1622395;85;21033;-87
2022/02/20 08:35:10;;;;;;;8.20;3.87;;;;;;;5.71;100.00;100901.66;1647221;85;21061;-86
2022/02/20 08:37:43;;;;;;;5.10;3.05;;;;;;;5.76;100.00;100908.71;1645823;85;21225;-89
2022/02/20 08:40:13;;;;;;;6.15;3.60;;;;;;;5.74;100.00;100905.36;1623826;86;21077;-90
2022/02/20 08:42:41;;;;;;;7.97;3.27;;;;;;;5.73;100.00;100910.17;1627314;85;21076;-92
2022/02/20 08:45:11;;;;;;;4.72;3.20;;;;;;;5.75;100.00;100903.16;1646191;85;20998;-87
2022/02/20 08:47:41;;;;;;;6.40;3.30;;;;;;;5.82;100.00;100905.81;1646206;85;21076;-88
2022/02/20 08:50:10;;;;;;;4.95;2.95;;;;;;;5.90;100.00;100910.61;1646294;85;21095;-87
2022/02/20 08:52:39;;;;;;;5.35;3.00;;;;;;;5.93;100.00;100906.58;1624963;85;21060;-88
2022/02/20 08:55:08;;;;;;;5.08;3.20;;;;;;;5.95;100.00;100913.34;1646064;85;21068;-92
2022/02/20 08:57:36;;;;;;;5.70;3.10;;;;;;;6.01;100.00;100912.20;1640241;85;21049;-89
2022/02/20 09:00:06;;;;;;;4.72;2.92;;;;;;;6.03;100.00;100914.73;1641687;84;21230;-88
2022/02/20 09:02:34;;;;;;;9.30;3.27;;;;;;;6.02;100.00;100912.58;1643214;84;21221;-88
2022/02/20 09:05:02;;;;;;;4.95;2.65;;;;;;;6.11;100.00;100915.99;1630217;86;22275;-87
2022/02/20 09:07:30;;;;;;;5.60;2.67;;;;;;;6.15;100.00;100909.77;1631785;86;21119;-88
2022/02/20 09:09:57;;;;;;;5.40;3.17;;;;;;;6.18;100.00;100920.84;1630915;86;21102;-86
2022/02/20 09:12:25;;;;;;;5.92;3.45;;;;;;;6.20;100.00;100914.70;1631053;86;22002;-87
2022/02/20 09:14:52;;;;;;;8.43;3.27;;;;;;;6.19;100.00;100917.34;1631374;86;21148;-88
2022/02/20 09:17:19;;;;;;;5.90;3.30;;;;;;;6.22;100.00;100918.48;1630391;86;21123;-87
2022/02/20 09:19:46;;;;;;;7.08;2.95;;;;;;;6.26;100.00;100922.13;1618628;85;21111;-87
2022/02/20 09:22:14;;;;;;;6.90;3.50;;;;;;;6.25;100.00;100915.28;1635212;87;21148;-91
2022/02/20 09:24:41;;;;;;;5.08;3.05;;;;;;;6.30;100.00;100913.75;1653267;85;21611;-89
2022/02/20 09:27:10;;;;;;;3.58;2.65;;;;;;;6.41;100.00;100910.59;1654101;85;21089;-87
2022/02/20 09:29:37;;;;;;;4.72;2.60;;;;;;;6.44;100.00;100912.56;1654355;86;21093;-87
2022/02/20 09:32:05;;;;;;;5.33;2.85;;;;;;;6.52;100.00;100913.91;1632135;86;21100;-87
2022/02/20 09:34:34;;;;;;;4.10;2.47;;;;;;;6.59;100.00;100908.33;1652160;85;21077;-88
2022/02/20 09:37:01;;;;;;;5.17;2.67;;;;;;;6.62;100.00;100910.73;1650841;86;21081;-89
2022/02/20 09:39:29;;;;;;;6.95;2.65;;;;;;;6.59;100.00;100908.77;1653338;85;21986;-88
2022/02/20 09:41:58;;;;;;;9.80;3.17;;;;;;;6.63;100.00;100914.18;1653529;85;21025;-88
2022/02/20 09:44:29;;;;;;;5.95;2.47;;;;;;;6.75;100.00;100908.80;1653297;85;21605;-86
2022/02/20 09:46:57;;;;;;;;;;;;;;;6.84;100.00;100904.86;1652361;85;21026;-87
2022/02/20 09:49:28;;;;;;;6.17;2.67;;;;;;;6.85;100.00;100906.53;1653959;85;20170;-87
2022/02/20 09:51:56;;;;;;;3.77;2.52;;;;;;;6.84;100.00;100899.23;1653880;85;21112;-89
2022/02/20 09:54:25;;;;;;;7.37;2.90;;;;;;;6.89;100.00;100900.28;1631951;86;21021;-90
2022/02/20 09:56:52;;;;;;;5.85;2.60;;;;;;;6.94;100.00;100906.85;1660140;84;21033;-86
2022/02/20 09:59:19;;;;;;;4.00;2.35;;;;;;;6.90;100.00;100898.05;1628244;86;21089;-87
2022/02/20 10:02:11;;;;;;;3.50;2.75;;;;;;;6.87;100.00;100908.11;1653271;85;21076;-88
2022/02/20 10:04:52;;;;;;;3.87;2.58;;;;;;;6.85;100.00;100891.82;1650420;86;21151;-84
2022/02/20 10:07:38;;;;;;;4.67;2.47;;;;;;;6.92;100.00;100894.48;1652761;85;21021;-88
2022/02/20 10:10:13;;;;;;;4.80;2.33;;;;;;;7.04;100.00;100892.11;1664902;84;21138;-88
2022/02/20 10:12:41;;;;;;;4.85;2.50;;;;;;;7.14;100.00;100893.27;1658040;84;21017;-88
2022/02/20 10:15:31;;;;;;;3.33;2.00;;;;;;;7.17;100.00;100881.42;1637804;84;21039;-89
2022/02/20 10:18:17;;;;;;;3.47;1.80;;;;;;;7.12;100.00;100895.58;1660319;83;21200;-87
2022/02/20 10:21:04;;;;;;;3.77;2.10;;;;;;;7.03;100.00;100886.11;1626287;84;21048;-88
2022/02/20 10:23:54;;;;;;;2.90;2.25;;;;;;;7.04;100.00;100886.92;1647122;84;21053;-89
2022/02/20 10:26:39;;;;;;;4.10;2.33;;;;;;;7.06;100.00;100886.39;1613718;86;21196;-86
2022/02/20 10:29:14;;;;;;;3.10;2.20;;;;;;;7.08;100.00;100878.91;1652213;83;21693;-88
2022/02/20 10:31:52;;;;;;;8.15;2.10;;;;;;;7.12;100.00;100881.33;1639831;85;21232;-89
2022/02/20 10:34:25;;;;;;;4.30;2.60;;;;;;;7.11;100.00;100881.77;1647715;85;21072;-91
2022/02/20 10:37:02;;;;;;;;;;;;;;;7.20;100.00;100877.37;1633330;86;20993;-88
2022/02/20 10:39:33;;;;;;;3.52;1.80;;;;;;;7.33;100.00;100877.98;1626724;86;20157;-88
2022/02/20 10:42:13;;;;;;;;;;;;;;;7.39;100.00;100869.38;1615938;85;21140;-85
2022/02/20 10:45:00;;;;;;;4.28;1.80;;;;;;;7.50;100.00;100867.46;1648889;84;21167;-88
2022/02/20 10:47:31;;;;;;;2.75;1.60;;;;;;;7.49;100.00;100864.97;1642664;86;21083;-84
2022/02/20 10:50:18;;;;;;;4.72;1.65;;;;;;;7.35;100.00;100860.58;1632779;85;21069;-88
2022/02/20 10:52:46;;;;;;;5.10;1.70;;;;;;;7.24;100.00;100867.23;1625200;86;21127;-87
2022/02/20 10:55:14;;;;;;;2.47;1.80;;;;;;;7.30;100.00;100863.43;1625412;86;21044;-88
2022/02/20 10:57:49;;;;;;;2.95;1.92;;;;;;;7.29;100.00;100855.28;1621301;86;21144;-88
2022/02/20 11:00:19;;;;;;;5.22;2.10;;;;;;;7.23;100.00;100859.52;1601495;87;21586;-87
2022/02/20 11:02:46;;;;;;;2.92;1.70;;;;;;;7.20;100.00;100865.72;1645819;85;21063;-87
2022/02/20 11:05:14;;;;;;;4.28;1.82;;;;;;;7.13;100.00;100866.17;1624890;86;21113;-85
2022/02/20 11:07:41;;;;;;;2.47;1.90;;;;;;;7.05;100.00;100867.88;1644478;85;21103;-86
2022/02/20 11:10:12;;;;;;;2.95;1.62;;;;;;;7.06;100.00;100862.61;1642436;85;21165;-85
2022/02/20 11:12:40;;;;;;;2.90;1.80;;;;;;;7.11;100.00;100858.47;1618486;87;21079;-89
2022/02/20 11:15:09;;;;;;;3.85;2.30;;;;;;;7.16;100.00;100873.31;1622833;85;21579;-90
2022/02/20 11:17:44;;;;;;;3.50;1.70;;;;;;;7.22;100.00;100866.92;1611769;86;21061;-86
2022/02/20 11:20:13;;;;;;;2.80;1.80;;;;;;;7.28;100.00;100861.86;1639414;86;21070;-89
2022/02/20 11:22:44;;;;;;;4.03;1.82;;;;;;;7.23;96.46;100862.97;1641578;85;21134;-86
2022/02/20 11:25:12;;;;;;;5.50;1.98;;;;;;;7.20;98.18;100861.83;1640390;85;21620;-88
2022/02/20 11:27:43;;;;;;;2.37;1.50;;;;;;;7.21;100.00;100859.63;1644620;85;21570;-86
2022/02/20 11:30:12;;;;;;;3.33;1.85;;;;;;;7.26;100.00;100858.06;1650187;85;21619;-89
2022/02/20 11:32:43;;;;;;;5.85;1.80;;;;;;;7.28;100.00;100857.52;1647271;84;21091;-87